Time;durP1;ratioP1;P1;durP2;ratioP2;P2;SDS_P1;SDS_P2;PMS_P1;PMS_P2;Temp;Humidity;BMP_temperature;BMP_pressure;BME280_temperature;BME280_humidity;BME280_pressure;Samples;Min_cycle;Max_cycle;Signal;HPM_P1;HPM_P2
2023/06/10 00:02:07;;;;;;;5.60;2.75;;;;;;;21.73;47.96;98255.94;4953796;29;20031;-87
2023/06/10 00:04:33;;;;;;;3.80;2.47;;;;;;;21.74;48.11;98260.22;4953986;29;20047;-87
2023/06/10 00:06:58;;;;;;;4.15;2.90;;;;;;;21.74;47.90;98254.09;4937738;29;20035;-86
2023/06/10 00:09:24;;;;;;;6.60;2.97;;;;;;;21.73;47.93;98255.94;4937690;29;20042;-86
2023/06/10 00:11:50;;;;;;;4.82;3.20;;;;;;;21.66;47.98;98247.13;4954128;29;20039;-87
2023/06/10 00:14:15;;;;;;;7.47;2.97;;;;;;;21.68;48.17;98253.91;4937624;29;20428;-87
2023/06/10 00:16:44;;;;;;;9.60;3.60;;;;;;;21.68;48.13;98250.44;4937568;29;20042;-86
2023/06/10 00:19:13;;;;;;;9.20;3.28;;;;;;;21.65;48.03;98248.16;4938063;29;20063;-87
2023/06/10 00:21:39;;;;;;;7.55;3.70;;;;;;;21.62;48.25;98254.69;4954704;28;20037;-87
2023/06/10 00:24:11;;;;;;;6.18;3.40;;;;;;;21.60;47.70;98254.09;4937712;29;20180;-86
2023/06/10 00:26:39;;;;;;;7.20;3.33;;;;;;;21.59;48.14;98252.44;4939268;29;20027;-86
2023/06/10 00:29:05;;;;;;;8.55;3.58;;;;;;;21.54;47.76;98246.91;4939710;29;20039;-87
2023/06/10 00:31:30;;;;;;;6.65;3.70;;;;;;;21.54;48.08;98251.38;4923960;29;20063;-86
2023/06/10 00:33:56;;;;;;;6.85;3.58;;;;;;;21.51;48.16;98255.28;4939723;29;20027;-87
2023/06/10 00:36:22;;;;;;;4.50;3.08;;;;;;;21.48;48.00;98255.63;4956099;28;20034;-86
2023/06/10 00:38:48;;;;;;;5.18;2.90;;;;;;;21.46;48.26;98253.19;4937803;29;20060;-86
2023/06/10 00:41:14;;;;;;;4.47;2.95;;;;;;;21.45;48.30;98253.38;4937415;29;20035;-86
2023/06/10 00:43:39;;;;;;;5.55;3.03;;;;;;;21.38;48.40;98240.09;4953419;29;20065;-86
2023/06/10 00:46:05;;;;;;;4.70;2.70;;;;;;;21.43;48.41;98244.81;4954934;29;20034;-84
2023/06/10 00:48:30;;;;;;;7.97;2.78;;;;;;;21.43;48.62;98255.44;4953396;29;20110;-81
2023/06/10 00:50:56;;;;;;;7.35;2.90;;;;;;;21.37;48.68;98242.94;4937076;29;20038;-81
2023/06/10 00:53:22;;;;;;;3.58;2.50;;;;;;;21.39;48.68;98260.28;4936740;29;20056;-81
2023/06/10 00:55:47;;;;;;;8.38;2.80;;;;;;;21.39;48.46;98260.28;4953169;29;20098;-81
2023/06/10 00:58:13;;;;;;;4.10;2.22;;;;;;;21.37;48.57;98249.06;4954426;28;20039;-81
2023/06/10 01:00:38;;;;;;;3.95;2.63;;;;;;;21.34;48.52;98262.72;4954189;28;20078;-81
2023/06/10 01:03:07;;;;;;;5.88;3.50;;;;;;;21.28;48.59;98252.91;4921246;29;20043;-80
2023/06/10 01:05:36;;;;;;;12.70;9.60;;;;;;;21.32;48.86;98265.59;4937133;29;20023;-80
2023/06/10 01:08:22;;;;;;;16.65;12.52;;;;;;;21.32;48.34;98265.59;4936706;29;20118;-80
2023/06/10 01:10:59;;;;;;;15.55;10.73;;;;;;;21.28;48.58;98256.38;4954333;28;20032;-80
2023/06/10 01:13:28;;;;;;;13.38;9.88;;;;;;;21.28;48.57;98253.72;4940800;29;20039;-80
2023/06/10 01:15:54;;;;;;;11.60;7.78;;;;;;;21.26;48.55;98255.75;4941593;29;20027;-80
2023/06/10 01:18:21;;;;;;;10.43;7.88;;;;;;;21.25;48.52;98251.47;4940658;29;20027;-80
2023/06/10 01:20:48;;;;;;;7.15;5.45;;;;;;;21.24;48.40;98252.47;4956837;29;20031;-80
2023/06/10 01:23:14;;;;;;;9.05;5.57;;;;;;;21.22;48.71;98249.22;4940951;29;20114;-80
2023/06/10 01:25:49;;;;;;;6.95;4.30;;;;;;;21.21;48.58;98244.91;4957774;28;20035;-80
2023/06/10 01:28:26;;;;;;;5.50;3.90;;;;;;;21.18;48.34;98244.50;4941476;29;20035;-80
2023/06/10 01:31:16;;;;;;;7.38;3.70;;;;;;;21.14;48.52;98236.09;4956811;29;20394;-79
2023/06/10 01:33:46;;;;;;;8.68;3.58;;;;;;;21.08;48.69;98234.22;4958131;28;20387;-80
2023/06/10 01:36:12;;;;;;;5.03;3.30;;;;;;;21.08;48.61;98235.06;4940552;29;20406;-80
2023/06/10 01:38:40;;;;;;;5.35;3.30;;;;;;;21.08;48.77;98242.19;4940622;29;20031;-79
2023/06/10 01:41:06;;;;;;;5.65;3.25;;;;;;;21.06;48.79;98244.22;4956371;29;20054;-80
2023/06/10 01:43:34;;;;;;;3.70;2.60;;;;;;;21.05;48.82;98246.06;4956574;29;20463;-80
2023/06/10 01:46:00;;;;;;;4.43;2.75;;;;;;;21.06;48.92;98255.69;4940559;29;20490;-80
2023/06/10 01:48:26;;;;;;;4.40;2.92;;;;;;;21.04;48.82;98252.38;4940414;29;20038;-80
2023/06/10 01:50:52;;;;;;;5.45;2.65;;;;;;;20.98;49.02;98242.53;4940556;29;20031;-81
2023/06/10 01:53:17;;;;;;;5.00;2.67;;;;;;;21.00;48.97;98252.97;4957596;28;20070;-80
2023/06/10 01:55:42;;;;;;;5.75;2.60;;;;;;;20.94;48.81;98249.28;4957911;28;20057;-81
2023/06/10 01:58:08;;;;;;;3.72;2.45;;;;;;;20.93;49.11;98251.09;4956315;29;20465;-80
2023/06/10 02:00:33;;;;;;;4.57;2.67;;;;;;;20.92;49.18;98254.78;4940396;29;20043;-81
2023/06/10 02:02:59;;;;;;;4.68;2.58;;;;;;;20.91;49.21;98257.63;4956036;29;20514;-80
2023/06/10 02:05:24;;;;;;;4.32;2.60;;;;;;;20.86;49.37;98247.59;4940573;29;20118;-80
2023/06/10 02:07:50;;;;;;;3.67;2.60;;;;;;;20.87;49.55;98253.72;4956132;29;20039;-81
2023/06/10 02:10:16;;;;;;;6.07;2.70;;;;;;;20.83;49.62;98258.59;4957193;28;20177;-80
2023/06/10 02:12:41;;;;;;;4.75;2.60;;;;;;;20.83;49.26;98263.91;4955988;29;20478;-80
2023/06/10 02:15:07;;;;;;;5.47;2.85;;;;;;;20.83;49.56;98258.59;4939872;29;20031;-79
2023/06/10 02:17:33;;;;;;;4.10;2.30;;;;;;;20.78;49.48;98253.88;4940008;29;20043;-80
2023/06/10 02:19:59;;;;;;;4.60;2.53;;;;;;;20.79;49.54;98270.59;4940209;29;20047;-80
2023/06/10 02:22:25;;;;;;;5.18;2.50;;;;;;;20.77;49.54;98265.47;4955504;28;20489;-80
2023/06/10 02:24:50;;;;;;;4.00;2.33;;;;;;;20.78;49.78;98269.78;4957010;28;20023;-80
2023/06/10 02:27:16;;;;;;;3.63;2.22;;;;;;;20.74;49.74;98254.44;4939929;29;20039;-80
2023/06/10 02:29:41;;;;;;;5.07;2.50;;;;;;;20.76;49.34;98255.06;4955751;29;20031;-80
2023/06/10 02:32:07;;;;;;;6.53;2.45;;;;;;;20.73;49.38;98251.00;4939635;29;20483;-80
2023/06/10 02:34:36;;;;;;;7.20;2.60;;;;;;;20.74;49.44;98249.16;4955461;29;20130;-80
2023/06/10 02:37:02;;;;;;;5.65;2.20;;;;;;;20.71;49.45;98249.53;4955538;29;20031;-80
2023/06/10 02:39:28;;;;;;;9.15;3.60;;;;;;;20.73;49.52;98248.34;4955513;29;20121;-80
2023/06/10 02:41:53;;;;;;;19.52;14.63;;;;;;;20.70;49.41;98246.06;4955484;29;20059;-80
2023/06/10 02:44:19;;;;;;;27.15;19.58;;;;;;;20.66;49.51;98249.31;4956461;28;20031;-80
2023/06/10 02:46:44;;;;;;;26.95;19.20;;;;;;;20.67;49.44;98250.94;4939718;29;20039;-81
2023/06/10 02:49:10;;;;;;;21.15;15.05;;;;;;;20.69;49.31;98256.88;4955540;29;20042;-81
2023/06/10 02:51:36;;;;;;;17.17;11.73;;;;;;;20.69;49.54;98264.84;4956551;28;20054;-80
2023/06/10 02:54:02;;;;;;;14.85;9.60;;;;;;;20.69;49.60;98262.19;4938806;29;20142;-80
2023/06/10 02:56:27;;;;;;;12.60;8.13;;;;;;;20.77;49.44;98262.03;4938977;29;20066;-81
2023/06/10 02:58:53;;;;;;;9.85;7.63;;;;;;;20.90;49.36;98269.25;4955360;29;20039;-80
2023/06/10 03:01:18;;;;;;;11.35;7.00;;;;;;;21.05;48.89;98269.13;4939354;29;20077;-79
2023/06/10 03:03:46;;;;;;;9.98;6.85;;;;;;;21.10;48.92;98269.38;4954834;29;20027;-77
2023/06/10 03:06:12;;;;;;;8.45;5.38;;;;;;;21.09;48.67;98263.22;4955158;29;20566;-82
2023/06/10 03:08:38;;;;;;;6.57;4.75;;;;;;;21.49;48.08;98267.91;4955373;29;20111;-81
2023/06/10 03:11:03;;;;;;;6.13;3.97;;;;;;;21.58;47.66;98260.59;4956434;28;20470;-85
2023/06/10 03:13:29;;;;;;;4.95;3.05;;;;;;;21.64;47.40;98265.13;4956565;28;20028;-78
2023/06/10 03:15:54;;;;;;;4.40;2.97;;;;;;;21.54;47.54;98260.19;4954900;29;20042;-81
2023/06/10 03:18:20;;;;;;;8.75;3.17;;;;;;;21.63;48.34;98268.78;4957014;28;20035;-81
2023/06/10 03:20:46;;;;;;;8.13;3.15;;;;;;;21.54;48.34;98257.53;4954976;29;20038;-80
2023/06/10 03:23:11;;;;;;;6.05;3.28;;;;;;;21.58;47.89;98263.25;4954791;29;20066;-79
2023/06/10 03:25:37;;;;;;;5.82;2.90;;;;;;;21.55;47.74;98258.34;4923477;29;20073;-82
2023/06/10 03:28:02;;;;;;;4.65;2.60;;;;;;;21.61;48.15;98260.19;4939139;29;20037;-84
2023/06/10 03:30:28;;;;;;;4.72;2.97;;;;;;;21.66;48.00;98260.41;4954660;29;20027;-79
2023/06/10 03:32:53;;;;;;;5.68;2.90;;;;;;;21.62;47.95;98265.31;4922454;29;20027;-80
2023/06/10 03:35:19;;;;;;;4.60;2.70;;;;;;;21.61;47.75;98266.31;4955177;28;20474;-82
2023/06/10 03:37:45;;;;;;;4.20;2.55;;;;;;;21.65;47.82;98266.75;4938624;29;20114;-89
2023/06/10 03:40:11;;;;;;;6.00;2.40;;;;;;;21.66;47.81;98266.56;4955649;28;20414;-82
2023/06/10 03:42:36;;;;;;;3.92;2.30;;;;;;;21.71;47.88;98268.59;4954164;29;20033;-77
2023/06/10 03:45:02;;;;;;;6.38;2.80;;;;;;;21.74;47.79;98270.84;4954730;28;20467;-82
2023/06/10 03:47:35;;;;;;;6.13;2.38;;;;;;;21.80;47.55;98262.09;4938132;29;20380;-81
2023/06/10 03:50:03;;;;;;;5.88;2.60;;;;;;;21.86;47.64;98263.13;4938231;29;20046;-81
2023/06/10 03:52:29;;;;;;;3.23;2.57;;;;;;;21.93;47.50;98263.13;4954138;29;20087;-82
2023/06/10 03:54:54;;;;;;;4.20;2.35;;;;;;;21.96;47.40;98260.06;4937953;29;20294;-81
2023/06/10 03:57:20;;;;;;;8.95;2.50;;;;;;;22.05;47.07;98261.53;4922899;29;20031;-81
2023/06/10 03:59:45;;;;;;;3.85;2.30;;;;;;;;;;4937944;29;20051;-81
2023/06/10 04:02:11;;;;;;;6.10;2.25;;;;;;;22.16;47.36;98255.59;4954062;29;20102;-81
2023/06/10 04:04:37;;;;;;;6.53;3.65;;;;;;;22.25;46.96;98258.91;4954206;28;20050;-80
2023/06/10 04:07:03;;;;;;;14.80;10.15;;;;;;;22.31;47.00;98251.94;4953580;29;20050;-81
2023/06/10 04:09:29;;;;;;;19.15;10.52;;;;;;;22.32;47.18;98238.47;4954777;28;20035;-81
2023/06/10 04:11:54;;;;;;;17.70;10.13;;;;;;;22.44;46.96;98254.63;4953744;29;20501;-83
2023/06/10 04:14:20;;;;;;;15.07;10.25;;;;;;;22.51;47.22;98249.28;4953673;29;20035;-81
2023/06/10 04:16:45;;;;;;;12.82;8.38;;;;;;;22.57;47.08;98249.28;4937861;29;20031;-81
2023/06/10 04:19:11;;;;;;;9.43;7.22;;;;;;;22.67;47.38;98251.50;4953747;29;20081;-81
2023/06/10 04:21:36;;;;;;;12.63;6.20;;;;;;;22.79;47.21;98249.06;4953722;29;20050;-81
2023/06/10 04:24:02;;;;;;;9.13;6.40;;;;;;;22.92;46.55;98237.56;4954746;28;20458;-81
2023/06/10 04:26:28;;;;;;;8.23;4.95;;;;;;;23.11;46.33;98243.88;4953699;29;20482;-81
2023/06/10 04:28:53;;;;;;;8.80;4.68;;;;;;;23.31;45.81;98241.16;4954162;29;20034;-80
2023/06/10 04:31:19;;;;;;;6.28;4.00;;;;;;;23.57;45.43;98236.72;4938421;29;20074;-81
2023/06/10 04:33:45;;;;;;;6.82;3.67;;;;;;;24.08;44.40;98240.31;4955081;28;20035;-81
2023/06/10 04:36:10;;;;;;;5.55;3.17;;;;;;;25.57;40.75;98244.78;4921576;29;20114;-81
2023/06/10 04:38:36;;;;;;;6.07;2.75;;;;;;;27.24;37.68;98239.38;4953227;29;20035;-81
2023/06/10 04:41:02;;;;;;;7.68;2.60;;;;;;;28.84;34.78;98237.53;4937532;29;20126;-81
2023/06/10 04:43:28;;;;;;;6.68;2.70;;;;;;;30.37;32.11;98242.94;4953201;29;20031;-82
2023/06/10 04:45:54;;;;;;;4.72;2.60;;;;;;;31.64;29.77;98234.97;4937102;29;20043;-81
2023/06/10 04:48:20;;;;;;;5.68;2.20;;;;;;;32.89;27.57;98238.19;4953063;29;20109;-82
2023/06/10 04:50:45;;;;;;;6.45;2.28;;;;;;;32.44;27.89;98232.59;4954319;28;20110;-82
2023/06/10 04:53:11;;;;;;;6.88;2.60;;;;;;;31.93;28.42;98241.50;4952554;29;20098;-82
2023/06/10 04:55:36;;;;;;;11.63;2.70;;;;;;;31.53;28.85;98251.16;4952931;29;20118;-83
2023/06/10 04:58:02;;;;;;;6.93;2.42;;;;;;;31.20;29.04;98242.38;4952982;29;20035;-82
2023/06/10 05:00:27;;;;;;;10.57;2.67;;;;;;;30.81;29.39;98240.00;4952989;29;20031;-81
2023/06/10 05:02:53;;;;;;;12.77;2.97;;;;;;;30.55;29.79;98243.63;4953055;29;20110;-81
2023/06/10 05:05:18;;;;;;;6.25;2.78;;;;;;;31.19;28.53;98234.56;4953245;29;20530;-83
2023/06/10 05:07:44;;;;;;;6.85;2.60;;;;;;;31.42;28.57;98240.56;4937275;29;20372;-83
2023/06/10 05:10:10;;;;;;;6.40;2.63;;;;;;;31.43;28.24;98243.00;4952875;29;20071;-82
2023/06/10 05:12:35;;;;;;;7.18;3.05;;;;;;;31.03;28.70;98258.75;4952935;29;20085;-81
2023/06/10 05:15:01;;;;;;;9.60;3.10;;;;;;;30.61;29.46;98240.69;4952825;29;20034;-83
2023/06/10 05:17:28;;;;;;;9.35;2.97;;;;;;;30.41;29.84;98254.03;4953605;29;20038;-82
2023/06/10 05:19:53;;;;;;;8.65;3.10;;;;;;;30.28;29.46;98247.19;4952698;29;20038;-82
2023/06/10 05:22:19;;;;;;;7.43;2.75;;;;;;;30.15;29.84;98253.00;4936187;29;20051;-81
2023/06/10 05:24:44;;;;;;;10.13;2.95;;;;;;;30.10;30.15;98253.78;4936802;29;20474;-82
2023/06/10 05:27:10;;;;;;;8.95;2.90;;;;;;;29.97;29.83;98251.50;4952999;29;20039;-82
2023/06/10 05:29:36;;;;;;;13.68;3.20;;;;;;;29.83;30.07;98248.41;4936572;29;20094;-81
2023/06/10 05:32:03;;;;;;;9.23;3.05;;;;;;;29.67;30.90;98239.38;4952700;29;20066;-82
2023/06/10 05:34:29;;;;;;;11.27;2.90;;;;;;;29.57;30.94;98246.25;4952760;29;20039;-82
2023/06/10 05:36:55;;;;;;;9.00;2.83;;;;;;;29.48;30.78;98250.47;4952674;28;20423;-82
2023/06/10 05:39:20;;;;;;;11.20;2.88;;;;;;;29.54;30.76;98243.25;4953602;28;20028;-82
2023/06/10 05:41:46;;;;;;;10.50;2.80;;;;;;;29.55;31.12;98239.50;4920584;29;20079;-82
2023/06/10 05:44:11;;;;;;;7.18;2.92;;;;;;;29.63;30.95;98249.00;4952412;29;20093;-82
2023/06/10 05:46:37;;;;;;;12.88;3.08;;;;;;;29.73;30.48;98244.53;4952912;29;20039;-82
2023/06/10 05:49:02;;;;;;;8.15;2.80;;;;;;;30.10;30.67;98240.31;4920778;29;20031;-82
2023/06/10 05:51:28;;;;;;;9.55;3.03;;;;;;;32.53;27.34;98232.84;4953092;29;20035;-82
2023/06/10 05:53:54;;;;;;;5.10;2.70;;;;;;;34.46;24.84;98243.22;4936596;29;20055;-81
2023/06/10 05:56:22;;;;;;;6.93;2.50;;;;;;;35.67;23.16;98242.06;4936306;29;20089;-82
2023/06/10 05:58:48;;;;;;;12.27;2.72;;;;;;;36.07;23.14;98238.22;4939246;29;20034;-82
2023/06/10 06:01:13;;;;;;;13.00;3.05;;;;;;;35.25;23.79;98242.91;4924213;29;20043;-82
2023/06/10 06:03:39;;;;;;;10.18;2.53;;;;;;;34.95;23.88;98236.78;4939875;29;20031;-81
2023/06/10 06:06:04;;;;;;;7.35;2.63;;;;;;;34.79;24.26;98234.22;4956137;29;20035;-80
2023/06/10 06:08:30;;;;;;;10.55;2.80;;;;;;;34.30;24.85;98243.38;4939977;29;20085;-83
2023/06/10 06:10:55;;;;;;;4.28;2.30;;;;;;;34.00;25.46;98231.69;4940138;29;20565;-81
2023/06/10 06:13:21;;;;;;;6.15;2.42;;;;;;;33.78;25.63;98234.00;4957145;29;20397;-81
2023/06/10 06:15:46;;;;;;;5.63;2.50;;;;;;;33.55;25.95;98241.69;4924241;29;20055;-84
2023/06/10 06:18:12;;;;;;;13.10;2.80;;;;;;;33.36;26.48;98234.22;4955689;29;20380;-82
2023/06/10 06:20:37;;;;;;;12.20;2.65;;;;;;;33.28;26.63;98236.72;4955352;29;20383;-81
2023/06/10 06:23:03;;;;;;;10.95;3.00;;;;;;;33.32;26.47;98238.59;4939391;29;20038;-82
2023/06/10 06:25:28;;;;;;;10.82;2.80;;;;;;;33.21;27.17;98241.59;4956658;28;20027;-81
2023/06/10 06:27:54;;;;;;;7.40;2.95;;;;;;;33.63;25.83;98234.88;4955564;29;20031;-82
2023/06/10 06:30:19;;;;;;;12.80;3.13;;;;;;;33.39;25.93;98232.06;4955605;28;20042;-82
2023/06/10 06:32:45;;;;;;;10.52;2.28;;;;;;;33.16;26.28;98235.13;4955624;29;20035;-84
2023/06/10 06:35:10;;;;;;;13.90;5.78;;;;;;;33.15;26.48;98225.38;4955576;28;20083;-81
2023/06/10 06:37:36;;;;;;;10.52;2.97;;;;;;;33.95;25.43;98226.28;4939478;29;20078;-81
2023/06/10 06:40:02;;;;;;;8.93;3.17;;;;;;;34.90;24.72;98223.25;4955293;29;20031;-82
2023/06/10 06:42:27;;;;;;;16.33;3.15;;;;;;;36.03;23.68;98227.16;4923772;29;20122;-82
2023/06/10 06:44:53;;;;;;;10.13;3.20;;;;;;;36.37;23.12;98228.78;4956855;28;20039;-82
2023/06/10 06:47:19;;;;;;;8.95;3.15;;;;;;;36.46;22.67;98212.59;4955105;29;20090;-82
2023/06/10 06:49:46;;;;;;;9.67;3.53;;;;;;;37.18;21.92;98217.44;4955176;29;20046;-83
2023/06/10 06:52:12;;;;;;;11.93;2.88;;;;;;;38.11;21.26;98218.88;4954981;29;20835;-82
2023/06/10 06:54:37;;;;;;;9.38;3.13;;;;;;;38.44;21.01;98213.13;4955094;29;20098;-83
2023/06/10 06:57:03;;;;;;;9.02;2.90;;;;;;;39.30;20.05;98224.66;4954943;29;20032;-82
2023/06/10 06:59:28;;;;;;;13.48;3.28;;;;;;;39.92;19.19;98215.34;4955073;29;20027;-83
2023/06/10 07:01:54;;;;;;;9.68;3.75;;;;;;;38.95;20.18;98219.13;4954512;29;20031;-82
2023/06/10 07:04:21;;;;;;;8.32;3.10;;;;;;;38.54;20.61;98218.31;4937863;29;20455;-82
2023/06/10 07:06:49;;;;;;;7.90;3.00;;;;;;;39.53;19.84;98208.94;4938354;29;20110;-82
2023/06/10 07:09:15;;;;;;;12.00;3.65;;;;;;;39.90;19.90;98208.59;4937255;29;20506;-80
2023/06/10 07:11:40;;;;;;;14.07;4.03;;;;;;;40.21;19.28;98200.19;4954805;29;20086;-82
2023/06/10 07:14:06;;;;;;;10.13;3.70;;;;;;;40.55;18.97;98203.97;4955104;29;20031;-82
2023/06/10 07:16:32;;;;;;;9.40;2.55;;;;;;;40.84;18.09;98197.69;4938739;29;20059;-82
2023/06/10 07:18:57;;;;;;;11.15;3.50;;;;;;;41.03;16.93;98193.75;4938565;29;20129;-82
2023/06/10 07:21:23;;;;;;;8.43;2.65;;;;;;;41.04;16.86;98198.91;4956056;28;20086;-82
2023/06/10 07:23:48;;;;;;;6.53;2.38;;;;;;;41.00;16.98;98189.75;4954911;28;20035;-82
2023/06/10 07:26:14;;;;;;;8.25;2.65;;;;;;;41.21;16.92;98192.50;4938814;29;20031;-82
2023/06/10 07:28:42;;;;;;;7.30;3.10;;;;;;;41.51;16.78;98197.13;4922984;29;20462;-82
2023/06/10 07:31:08;;;;;;;7.45;3.70;;;;;;;41.04;16.83;98187.16;4923410;29;20039;-81
2023/06/10 07:33:33;;;;;;;8.48;5.75;;;;;;;40.38;17.51;98182.16;4938918;29;20066;-82
2023/06/10 07:35:59;;;;;;;9.48;7.75;;;;;;;39.90;17.85;98187.56;4954190;29;20042;-82
2023/06/10 07:38:25;;;;;;;13.88;6.57;;;;;;;39.52;17.93;98196.44;4938423;29;20491;-82
2023/06/10 07:40:56;;;;;;;9.23;6.43;;;;;;;39.27;18.19;98198.00;4954439;29;20019;-81
2023/06/10 07:43:22;;;;;;;10.63;5.78;;;;;;;39.41;18.21;98197.81;4923309;29;20034;-83
2023/06/10 07:45:47;;;;;;;8.60;6.22;;;;;;;39.57;18.46;98198.22;4938089;29;20039;-82
2023/06/10 07:48:13;;;;;;;6.88;5.68;;;;;;;39.59;18.13;98209.59;4953903;29;20153;-82
2023/06/10 07:50:38;;;;;;;7.07;5.45;;;;;;;39.85;17.86;98195.09;4954251;29;20387;-81
2023/06/10 07:53:04;;;;;;;6.35;5.15;;;;;;;39.60;17.64;98203.81;4954937;28;20051;-84
2023/06/10 07:55:29;;;;;;;6.47;5.25;;;;;;;39.77;17.51;98205.75;4938731;29;20049;-82
2023/06/10 07:57:55;;;;;;;8.15;5.28;;;;;;;40.01;17.46;98201.72;4954231;29;20035;-82
2023/06/10 08:00:20;;;;;;;8.93;5.30;;;;;;;40.26;17.21;98196.47;4955128;28;20380;-81
2023/06/10 08:02:46;;;;;;;5.90;4.88;;;;;;;40.19;17.08;98191.53;4954334;29;20063;-82
2023/06/10 08:05:12;;;;;;;7.47;5.05;;;;;;;40.21;17.08;98199.41;4937951;29;20027;-82
2023/06/10 08:07:38;;;;;;;6.47;4.72;;;;;;;40.56;16.84;98193.81;4953762;29;20560;-81
2023/06/10 08:10:05;;;;;;;7.35;5.00;;;;;;;40.63;16.81;98196.88;4938096;29;20376;-82
2023/06/10 08:12:31;;;;;;;14.00;5.43;;;;;;;41.00;16.24;98192.47;4922785;29;20031;-81
2023/06/10 08:14:56;;;;;;;7.93;5.20;;;;;;;40.80;17.15;98185.81;4953970;29;20078;-81
2023/06/10 08:17:22;;;;;;;9.82;6.90;;;;;;;40.57;17.31;98187.25;4953984;29;20459;-82
2023/06/10 08:19:47;;;;;;;7.15;4.32;;;;;;;40.33;17.75;98196.78;4953458;29;20034;-82
2023/06/10 08:22:13;;;;;;;5.85;4.18;;;;;;;40.09;17.60;98195.41;4953362;28;20035;-80
2023/06/10 08:24:39;;;;;;;8.27;4.15;;;;;;;40.29;17.26;98193.09;4921725;29;20066;-82
2023/06/10 08:27:05;;;;;;;7.57;3.45;;;;;;;40.43;17.67;98190.97;4953531;29;20106;-82
2023/06/10 08:29:31;;;;;;;6.82;2.92;;;;;;;40.44;17.26;98189.84;4953528;29;20513;-83
2023/06/10 08:31:57;;;;;;;9.65;3.08;;;;;;;40.43;17.37;98184.72;4937572;29;20114;-82
2023/06/10 08:34:22;;;;;;;4.97;2.90;;;;;;;40.65;17.53;98180.91;4937821;29;20036;-82
2023/06/10 08:36:52;;;;;;;6.03;3.05;;;;;;;40.72;17.79;98188.59;4953268;29;20110;-81
2023/06/10 08:39:18;;;;;;;4.30;2.63;;;;;;;40.61;17.50;98190.91;4938138;29;20057;-82
2023/06/10 08:41:44;;;;;;;6.60;2.75;;;;;;;40.50;17.91;98196.75;4953349;29;20071;-81
2023/06/10 08:44:18;;;;;;;4.25;2.78;;;;;;;40.39;18.03;98191.94;4953319;29;20030;-82
2023/06/10 08:46:44;;;;;;;6.57;3.03;;;;;;;40.38;18.06;98195.81;4938741;29;20031;-82
2023/06/10 08:49:10;;;;;;;5.95;2.80;;;;;;;40.26;18.16;98204.69;4954531;28;20031;-82
2023/06/10 08:51:36;;;;;;;9.48;2.95;;;;;;;40.20;17.92;98192.31;4921780;29;20055;-82
2023/06/10 08:54:05;;;;;;;6.32;2.80;;;;;;;40.16;17.93;98197.66;4921131;29;20126;-83
2023/06/10 08:56:31;;;;;;;6.60;2.75;;;;;;;40.25;17.75;98189.41;4937202;29;20130;-82
2023/06/10 08:58:57;;;;;;;6.28;2.72;;;;;;;40.00;17.79;98182.91;4953488;29;20047;-82
2023/06/10 09:01:24;;;;;;;5.40;3.67;;;;;;;39.83;18.09;98189.97;4937422;29;20415;-85
2023/06/10 09:03:50;;;;;;;;;;;;;;;39.61;18.51;98185.50;4937577;29;20058;-84
2023/06/10 09:06:15;;;;;;;10.00;4.17;;;;;;;39.42;18.62;98172.94;4953431;29;20322;-83
2023/06/10 09:08:41;;;;;;;7.40;4.10;;;;;;;39.19;18.88;98185.97;4937633;29;20039;-84
2023/06/10 09:11:06;;;;;;;6.20;3.88;;;;;;;39.00;19.31;98180.75;4937299;29;20523;-83
2023/06/10 09:13:32;;;;;;;4.18;3.17;;;;;;;38.76;19.44;98175.72;4953543;28;20027;-84
2023/06/10 09:16:00;;;;;;;8.30;3.85;;;;;;;38.47;19.16;98171.59;4953307;29;20509;-84
2023/06/10 09:18:27;;;;;;;8.02;3.70;;;;;;;38.14;19.25;98171.09;4937980;29;20114;-85
2023/06/10 09:20:52;;;;;;;9.50;5.50;;;;;;;37.81;20.37;98172.22;4936989;29;20074;-84
2023/06/10 09:23:18;;;;;;;8.52;4.68;;;;;;;37.54;20.61;98173.09;4937493;29;20063;-83
2023/06/10 09:25:43;;;;;;;6.38;5.03;;;;;;;37.24;21.27;98171.88;4921155;29;20118;-85
2023/06/10 09:28:15;;;;;;;9.98;5.35;;;;;;;36.97;21.84;98175.44;4952689;29;20031;-84
2023/06/10 09:30:40;;;;;;;8.40;5.47;;;;;;;36.70;22.21;98174.34;4953042;29;20031;-84
2023/06/10 09:33:11;;;;;;;9.27;6.90;;;;;;;36.49;22.57;98180.16;4938650;29;20054;-84
2023/06/10 09:35:37;;;;;;;8.30;6.28;;;;;;;36.31;22.56;98178.34;4957170;29;20057;-84
2023/06/10 09:38:02;;;;;;;7.07;5.53;;;;;;;36.15;22.85;98178.59;4940327;29;20023;-84
2023/06/10 09:40:28;;;;;;;7.40;5.10;;;;;;;36.05;22.84;98182.28;4956518;29;20043;-85
2023/06/10 09:43:00;;;;;;;14.43;6.03;;;;;;;35.93;22.90;98178.44;4940326;29;20039;-84
2023/06/10 09:45:31;;;;;;;11.00;5.70;;;;;;;35.82;22.86;98189.47;4941049;29;20059;-84
2023/06/10 09:47:56;;;;;;;9.82;5.15;;;;;;;35.69;23.00;98176.63;4940751;29;20058;-83
2023/06/10 09:50:22;;;;;;;5.93;4.93;;;;;;;35.69;23.07;98177.44;4940691;29;20478;-84
2023/06/10 09:52:48;;;;;;;6.55;4.53;;;;;;;35.80;23.13;98177.28;4955985;28;20035;-84
2023/06/10 09:55:13;;;;;;;6.10;3.72;;;;;;;35.81;22.82;98171.56;4940557;29;20031;-81
2023/06/10 09:57:41;;;;;;;11.65;4.32;;;;;;;35.92;22.59;98176.84;4940226;29;20055;-82
2023/06/10 10:00:10;;;;;;;7.10;4.75;;;;;;;35.96;22.78;98173.22;4940526;29;20050;-84
2023/06/10 10:02:47;;;;;;;5.75;3.78;;;;;;;35.96;22.59;98175.94;4939919;29;20035;-83
2023/06/10 10:05:16;;;;;;;7.55;4.00;;;;;;;36.03;22.27;98181.78;4956542;29;20103;-83
2023/06/10 10:07:43;;;;;;;7.18;4.10;;;;;;;35.97;21.89;98182.19;4956264;29;20042;-84
2023/06/10 10:10:09;;;;;;;7.45;3.83;;;;;;;35.95;21.67;98177.03;4941108;29;20027;-82
2023/06/10 10:12:35;;;;;;;9.50;3.80;;;;;;;35.84;21.42;98173.69;4924653;29;20023;-84
2023/06/10 10:15:01;;;;;;;5.78;4.30;;;;;;;35.85;21.52;98179.91;4939779;29;20043;-84
2023/06/10 10:17:26;;;;;;;6.47;4.40;;;;;;;35.86;21.58;98181.53;4924397;29;20494;-82
2023/06/10 10:20:02;;;;;;;9.95;6.82;;;;;;;35.77;21.81;98177.88;4956094;29;20035;-83
2023/06/10 10:22:34;;;;;;;8.50;6.97;;;;;;;35.66;21.72;98172.59;4939530;29;20067;-83
2023/06/10 10:25:02;;;;;;;13.18;6.85;;;;;;;35.64;21.91;98182.13;4939939;29;20027;-83
2023/06/10 10:27:30;;;;;;;7.00;4.93;;;;;;;35.55;21.90;98175.75;4956001;28;20047;-82
2023/06/10 10:29:56;;;;;;;8.43;4.55;;;;;;;35.49;22.05;98173.13;4955532;29;20024;-81
2023/06/10 10:32:25;;;;;;;5.15;3.60;;;;;;;35.35;22.37;98174.97;4955481;29;20031;-83
2023/06/10 10:35:13;;;;;;;10.88;3.55;;;;;;;35.19;22.63;98177.06;4956146;29;20038;-82
2023/06/10 10:37:39;;;;;;;4.97;2.88;;;;;;;35.07;22.39;98174.75;4939486;29;20561;-83
2023/06/10 10:40:05;;;;;;;7.35;2.78;;;;;;;34.95;22.72;98169.78;4939663;29;20039;-82
2023/06/10 10:42:30;;;;;;;6.38;2.70;;;;;;;34.89;23.15;98164.72;4955320;29;20426;-81
2023/06/10 10:44:56;;;;;;;8.18;3.10;;;;;;;34.86;23.66;98165.31;4938065;29;20439;-83
2023/06/10 10:47:22;;;;;;;6.65;2.38;;;;;;;34.69;23.25;98161.13;4939368;29;20043;-82
2023/06/10 10:49:49;;;;;;;11.00;2.45;;;;;;;34.52;23.32;98161.59;4939859;29;20039;-82
2023/06/10 10:52:15;;;;;;;;;;;;;;;34.40;23.37;98172.81;4956026;28;20094;-83
2023/06/10 10:54:43;;;;;;;5.85;2.17;;;;;;;34.30;23.42;98167.53;4955670;29;19922;-83
2023/06/10 10:57:12;;;;;;;4.82;2.30;;;;;;;34.21;23.82;98169.22;4939351;29;20039;-82
2023/06/10 11:00:01;;;;;;;8.68;2.20;;;;;;;34.07;24.11;98171.78;4955101;29;20567;-82
2023/06/10 11:02:39;;;;;;;10.52;2.20;;;;;;;33.96;24.19;98165.66;4939837;29;20137;-83
2023/06/10 11:05:06;;;;;;;11.13;2.10;;;;;;;33.92;23.71;98166.50;4955435;29;20035;-83
2023/06/10 11:07:32;;;;;;;4.77;2.20;;;;;;;33.78;23.93;98158.22;4939274;29;20038;-81
2023/06/10 11:10:01;;;;;;;9.75;2.35;;;;;;;33.75;23.94;98156.91;4939046;29;20027;-83
2023/06/10 11:12:41;;;;;;;6.68;2.60;;;;;;;33.72;24.06;98152.84;4955890;28;20031;-83
2023/06/10 11:15:07;;;;;;;4.18;2.30;;;;;;;33.60;23.68;98144.25;4955054;29;20166;-82
2023/06/10 11:17:33;;;;;;;6.18;2.53;;;;;;;33.50;23.62;98141.63;4954607;28;20572;-82
2023/06/10 11:19:59;;;;;;;5.40;2.15;;;;;;;33.33;23.81;98142.81;4938888;29;20093;-83
2023/06/10 11:22:24;;;;;;;7.35;2.15;;;;;;;33.30;24.08;98139.88;4923113;29;20103;-83
2023/06/10 11:24:50;;;;;;;4.93;2.33;;;;;;;33.30;23.96;98135.25;4955785;28;20058;-82
2023/06/10 11:27:25;;;;;;;6.38;2.85;;;;;;;33.41;23.99;98132.50;4938537;29;20031;-82
2023/06/10 11:30:06;;;;;;;5.35;2.45;;;;;;;33.56;24.11;98139.69;4954524;29;20035;-82